Abbott, Texas
Current Conditions -  °F | °C
As of 9:55 AM on Friday 31 Oct 2014 (Local Time) from KINJ Reporting Station
Clear Clear  
Wind Chill: 60°   Ceiling: Unl
Heat Index: 60°   Visibility: 10mi
Dew Point: 43°   Wind: 17mph
Humidity: 54%   Direction: 360°N
Pressure: 30.3"   Gusts: 29mph
Location:  31.88°N, 97.07°W
Report Text: KINJ 311455Z AUTO 36015G25KT 10SM CLR 15/06 A3030 RMK AO2 T01540060
Loading
Personal Weather Stations






























Interactive Weather Map
Tropical Storm Tracking
New forecast layout! Learn more

10-Day Weather Forecast

Advertisements
Track Severe Weather on mobile